Airfield :
LOGIN :

Register | Disclaimer

   EN    FR    IT 

 










Legend :    VFR   Marginal VFR   IFR   Intensive IFR   Very Intensive IFR
Visi :
Ceiling :
>= 8 km
>= 3000ft
5 to 8 km
1000 to 3000 ft
1500m to 5 km
500 to 1000 ft
800 to 1500m
200 to 500 ft
< 800m
< 200 ft
Symbols :   Thunderstorms  Fog  Heavy snow  Heavy precipitations  Wind > 20 kt
SIGMETs :     Misc.  Thunderstorms  Icing  Turbulence  Mountain Waves  Volcanic Ashes







- Airport Elevation : 112 ft
- IATA code : KIR


EIKY - Kerry Farranfore

CURRENT METAR :
  • 171200Z 27011KT 9999 -RA SCT011 BKN018 18/17 Q1009

EXPIRED METARs :
  • 171130Z 24012KT 9999 -RA BKN018 18/16 Q1009
  • 171100Z 19008KT 170V230 9999 BKN019 18/16 Q1009
  • 171030Z 18012KT 9999 FEW016 BKN023 17/15 Q1009
  • 171000Z 19011KT 9999 FEW016 BKN022 17/14 Q1010
  • 170930Z 20011KT 160V220 9999 BKN021 BKN027 17/15 Q1010

TAF TAF EIKY
Valid from the 17 at 12:00 until the 17 at 21:00 UTC


171100Z 1712/1721 21013KT 9999 SCT008 BKN014
BECMG 1712/1714 25015KT
TEMPO 1712/1716 4000 -RADZ BKN005
BECMG 1714/1716 30013KT
BECMG 1716/1717 BKN020
No reported NOTAMs for that airfield.



MET'MAP, your aeronautical weather chart ! - Copyright ORBIFLY December 2007 - Disclaimer

ORBIFLY MET'MAP TEAM :

Programming & Development : Alexandra Zaïnal
Concept & Development : Baudouin d'Aumeries
Co-Development & Prog : Marc-Olivier Méhu
Technical & hardware support : Manuel Goepfert

Contact : metmap@orbifly.com




SOURCES & CREDITS :

   NOAA